• Join FlightAware (Why Join?)
  • Login
  • US Flag 
06:08AM EDT


 

Airport Tracker/Info


-or-


 

Live Flight TrackerFlight Track Log ✈ UAL252 ✈ 21-Jun-2013 ✈ KBWI - KIAH

Flight Track Log - Related Links

Times and Time Zones

All times are in EDT time to prevent confusion due to time zone crossing. See the UAL252 flight status page for this flight to view local times or setup timezone preferences in your user account.

Time Position Orientation Groundspeed Altitude Reporting Facility
EDT Latitude Longitude Course Direction KTS MPH feet Rate Location/Type
06:09PM 39.1500 -76.6500 256° West 158 182 1,300  Level Potomac TRACON
06:10PM 39.1167 -76.6667 201° Southwest 213 245 2,500 1,860 Climbing Potomac TRACON
06:11PM 39.1500 -76.7333 303° West 245 282 5,100 2,760 Climbing Potomac TRACON
06:12PM 39.2000 -77.0835 270° West  Level FlightAware Approximate
06:12PM 39.2000 -76.8000 314° West 284 327 7,800  Level Potomac TRACON
06:13PM 39.1511 -77.1918 211° Southwest  Level FlightAware Approximate
06:13PM 39.2000 -76.9000 270° West 286 329 10,500  Level Potomac TRACON
06:14PM 39.0568 -77.2651 211° Southwest  Level FlightAware Approximate
06:15PM 38.9899 -77.3673 256° West  Level FlightAware Approximate
06:15PM 39.1975 -77.1317 269° West 333 383 14,400  Level Washington Center
06:16PM 39.1400 -77.2267 232° Southwest 328 377 16,700 1,980 Climbing Washington Center
06:17PM 39.1047 -77.3542 250° West 353 406 18,400 1,740 Climbing Washington Center
06:18PM 39.0694 -77.4792 250° West 369 425 20,300 1,740 Climbing Washington Center
06:19PM 39.0319 -77.6092 250° West 391 450 21,900 1,500 Climbing Washington Center
06:20PM 38.9944 -77.7336 249° West 407 468 23,300 1,380 Climbing Washington Center
06:21PM 38.9542 -77.8792 250° West 422 486 24,800 1,320 Climbing Washington Center
06:22PM 38.9119 -78.0194 249° West 430 495 26,000 1,080 Climbing Washington Center
06:23PM 38.8692 -78.1619 249° West 430 495 27,000 480 Climbing Washington Center
06:24PM 38.8533 -78.3186 263° West 435 501 27,000 120 Level Washington Center
06:25PM 38.8517 -78.4786 269° West 446 513 27,300 660 Climbing Washington Center
06:26PM 38.8497 -78.6411 269° West 446 513 28,400 900 Climbing Washington Center
06:27PM 38.8475 -78.8061 269° West 462 532 29,200 780 Climbing Washington Center
06:28PM 38.8408 -78.9764 267° West 469 540 30,000 960 Climbing Washington Center
06:29PM 38.8150 -79.1458 259° West 481 554 31,200 1,320 Climbing Washington Center
06:30PM 38.7869 -79.3175 258° West 486 559 32,600 2,400 Climbing Washington Center
06:31PM 38.7586 -79.4867 258° West 486 559 36,000 1,020 Climbing Washington Center
06:32PM 38.7300 -79.6556 258° West 486 559 34,700  Descending Washington Center
06:33PM 38.7008 -79.8400 259° West 486 559 36,000 780 Climbing Washington Center
06:34PM 38.6814 -79.9194 253° West 485 558 35,900  Descending Indianapolis Center
06:35PM 38.6528 -80.0842 258° West 477 549 36,000  Climbing Indianapolis Center
06:36PM 38.6253 -80.2511 258° West 477 549 36,000  Level Indianapolis Center
06:37PM 38.5964 -80.4156 257° West 475 547 36,000  Level Indianapolis Center
06:38PM 38.5594 -80.6192 257° West 486 559 36,000  Level Indianapolis Center
06:39PM 38.5308 -80.7869 258° West 482 555 36,000  Level Indianapolis Center
06:40PM 38.4994 -80.9550 257° West 484 557 36,000  Level Indianapolis Center
06:41PM 38.4692 -81.1242 257° West 487 560 36,000  Level Indianapolis Center
06:42PM 38.4386 -81.2936 257° West 486 559 36,000  Level Indianapolis Center
06:43PM 38.4067 -81.4639 257° West 483 556 36,000  Level Indianapolis Center
06:44PM 38.3750 -81.6319 257° West 485 558 36,000  Level Indianapolis Center
06:45PM 38.3369 -81.7964 254° West 485 558 36,000  Level Indianapolis Center
06:46PM 38.2750 -81.9478 243° Southwest 482 555 36,000  Level Indianapolis Center
06:47PM 38.2003 -82.1283 242° Southwest 481 554 36,000  Level Indianapolis Center
06:48PM 38.1358 -82.2781 241° Southwest 482 555 36,000  Level Indianapolis Center
06:49PM 38.0775 -82.4172 242° Southwest 479 551 36,000  Level Indianapolis Center
06:50PM 38.0025 -82.5908 241° Southwest 482 555 36,000  Level Indianapolis Center
06:51PM 37.9392 -82.7394 242° Southwest 483 556 36,000  Level Indianapolis Center
06:52PM 37.8761 -82.8878 242° Southwest 480 552 36,000  Level Indianapolis Center
06:53PM 37.8111 -83.0356 241° Southwest 483 556 36,000  Level Indianapolis Center
06:54PM 37.7378 -83.2072 242° Southwest 480 552 36,000  Level Indianapolis Center
06:55PM 37.6725 -83.3547 241° Southwest 483 556 36,000  Level Indianapolis Center
06:56PM 37.6083 -83.5019 241° Southwest 483 556 36,000  Level Indianapolis Center
06:58PM 37.5436 -83.6483 241° Southwest 481 554 36,000  Level Indianapolis Center
06:59PM 37.4781 -83.7928 240° Southwest 478 550 36,000  Level Indianapolis Center
07:00PM 37.4042 -83.9611 241° Southwest 475 547 36,000  Level Indianapolis Center
07:01PM 37.3386 -84.1067 241° Southwest 479 551 36,000  Level Indianapolis Center
07:02PM 37.2733 -84.2517 241° Southwest 477 549 36,000  Level Indianapolis Center
07:03PM 37.2075 -84.3964 240° Southwest 479 551 36,000  Level Indianapolis Center
07:04PM 37.1319 -84.5664 241° Southwest 481 554 36,000  Level Indianapolis Center
07:05PM 37.0650 -84.7119 240° Southwest 483 556 36,000  Level Indianapolis Center
07:06PM 37.0033 -84.8461 240° Southwest 477 549 36,000  Level Indianapolis Center
07:07PM 36.9364 -84.9917 240° Southwest 481 554 36,000  Level Indianapolis Center
07:08PM 36.8569 -85.1633 240° Southwest 479 551 36,000  Level Indianapolis Center
07:09PM 36.7897 -85.3078 240° Southwest 482 555 36,000  Level Indianapolis Center
07:10PM 36.7233 -85.4508 240° Southwest 479 551 36,000  Level Indianapolis Center
07:11PM 36.6564 -85.5939 240° Southwest 480 552 36,000  Level Indianapolis Center
07:12PM 36.5883 -85.7386 240° Southwest 485 558 36,000  Level Indianapolis Center
07:13PM 36.5117 -85.8997 239° Southwest 486 559 36,000  Level Indianapolis Center
07:14PM 36.4433 -86.0428 239° Southwest 479 551 36,000  Level Indianapolis Center
07:15PM 36.3758 -86.1864 240° Southwest 477 549 36,000  Level Indianapolis Center
07:16PM 36.3072 -86.3286 239° Southwest 475 547 36,000 -60 Level Indianapolis Center
07:17PM 36.2386 -86.4700 239° Southwest 472 543 35,900  Descending Indianapolis Center
07:18PM 36.1647 -86.6164 238° Southwest 484 557 36,000  Climbing Memphis Center
07:19PM 36.0872 -86.7483 234° Southwest 484 557 36,000  Level Memphis Center
07:20PM 36.0031 -86.8700 229° Southwest 479 551 36,000  Level Memphis Center
07:21PM 35.9147 -86.9917 228° Southwest 474 545 36,000  Level Memphis Center
07:22PM 35.8203 -87.1236 229° Southwest 474 545 36,000  Level Memphis Center
07:23PM 35.7378 -87.2419 229° Southwest 474 545 36,000  Level Memphis Center
07:24PM 35.6511 -87.3603 228° Southwest 474 545 36,000  Level Memphis Center
07:25PM 35.5642 -87.4781 228° Southwest 469 540 36,000  Level Memphis Center
07:26PM 35.4814 -87.5933 229° Southwest 469 540 36,000 -60 Level Memphis Center
07:27PM 35.3983 -87.7081 228° Southwest 469 540 35,900  Descending Memphis Center
07:28PM 35.3256 -87.8172 231° Southwest 459 528 36,000  Climbing Memphis Center
07:29PM 35.2422 -87.9367 230° Southwest 464 534 36,000  Level Memphis Center
07:30PM 35.1569 -88.0511 228° Southwest 464 534 36,000  Level Memphis Center
07:31PM 35.0692 -88.1600 225° Southwest 457 526 36,000  Level Memphis Center
07:32PM 34.9878 -88.2761 229° Southwest 457 526 36,000 -60 Level Memphis Center
07:33PM 34.9042 -88.3922 229° Southwest 457 526 35,900  Descending Memphis Center
07:34PM 34.8119 -88.5081 226° Southwest 452 520 36,000  Climbing Memphis Center
07:35PM 34.7261 -88.6211 227° Southwest 444 511 36,000  Level Memphis Center
07:36PM 34.6419 -88.7364 228° Southwest 444 511 36,000  Level Memphis Center
07:37PM 34.5578 -88.8467 227° Southwest 454 522 36,000  Level Memphis Center
07:38PM 34.4736 -88.9564 227° Southwest 445 512 36,000  Level Memphis Center
07:39PM 34.3872 -89.0711 228° Southwest 452 520 36,000  Level Memphis Center
07:40PM 34.2986 -89.1856 227° Southwest 452 520 36,000  Level Memphis Center
07:41PM 34.2244 -89.2844 228° Southwest 452 520 36,000  Level Memphis Center
07:42PM 34.1397 -89.3961 228° Southwest 452 520 36,000  Level Memphis Center
07:43PM 34.0569 -89.5072 228° Southwest 452 520 36,000  Level Memphis Center
07:44PM 33.9722 -89.6158 227° Southwest 447 514 36,000  Level Memphis Center
07:45PM 33.8811 -89.7367 228° Southwest 447 514 36,000  Level Memphis Center
07:46PM 33.8083 -89.8372 229° Southwest 442 509 36,000  Level Memphis Center
07:47PM 33.7253 -89.9450 227° Southwest 442 509 36,000  Level Memphis Center
07:48PM 33.6422 -90.0528 227° Southwest 442 509 36,000  Level Memphis Center
07:49PM 33.5569 -90.1603 226° Southwest 442 509 36,000  Level Memphis Center
07:50PM 33.4525 -90.2675 221° Southwest 448 516 36,000  Level Memphis Center
07:51PM 33.3586 -90.3647 221° Southwest 448 516 36,000  Level Memphis Center
07:52PM 33.2669 -90.4592 221° Southwest 448 516 36,000  Level Memphis Center
07:53PM 33.1728 -90.5608 222° Southwest 453 521 36,000  Level Memphis Center
07:54PM 33.0786 -90.6597 221° Southwest 453 521 36,000  Level Memphis Center
07:55PM 32.9844 -90.7536 220° Southwest 453 521 36,000  Level Memphis Center
07:56PM 32.8903 -90.8497 221° Southwest 453 521 36,000  Level Memphis Center
07:57PM 32.8000 -90.9456 222° Southwest 453 521 36,000  Level Memphis Center
07:58PM 32.7056 -91.0411 220° Southwest 453 521 36,000  Level Memphis Center
07:59PM 32.6131 -91.1367 221° Southwest 447 514 36,000  Level Memphis Center
08:00PM 32.5269 -91.2247 221° Southwest 447 514 36,000  Level Memphis Center
08:02PM 32.3825 -91.3742 221° Southwest 439 505 36,000  Level Houston Center
08:03PM 32.2889 -91.4694 221° Southwest 443 510 36,000  Level Houston Center
08:04PM 32.2028 -91.5703 225° Southwest 438 504 36,000 -300 Level Houston Center
08:05PM 32.1339 -91.6869 235° Southwest 432 497 35,400 -1,200 Descending Houston Center
08:06PM 32.0483 -91.8264 234° Southwest 436 502 33,600 -1,620 Descending Houston Center
08:07PM 31.9758 -91.9436 234° Southwest 441 507 32,100 -840 Descending Houston Center
08:08PM 31.8953 -92.0731 234° Southwest 454 522 31,900 -120 Descending Houston Center
08:09PM 31.8217 -92.1953 235° Southwest 460 529 31,900  Level Houston Center
08:10PM 31.7500 -92.3172 235° Southwest 456 525 31,900  Level Houston Center
08:11PM 31.6833 -92.4408 238° Southwest 449 517 31,900  Level Houston Center
08:12PM 31.6175 -92.5631 238° Southwest 443 510 31,900  Level Houston Center
08:13PM 31.5475 -92.6828 236° Southwest 446 513 31,900  Level Houston Center
08:14PM 31.4831 -92.8083 239° Southwest 453 521 32,000  Climbing Houston Center
08:15PM 31.3853 -92.9406 229° Southwest 450 518 31,900 -60 Descending Houston Center
08:16PM 31.2944 -93.0389 223° Southwest 447 514 31,900 -300 Level Houston Center
08:17PM 31.2028 -93.1356 222° Southwest 447 514 31,400 -780 Descending Houston Center
08:18PM 31.1094 -93.2325 222° Southwest 449 517 30,400 -1,140 Descending Houston Center
08:19PM 31.0144 -93.3258 220° Southwest 450 518 29,100 -1,560 Descending Houston Center
08:20PM 30.9211 -93.4211 221° Southwest 449 517 27,200 -2,100 Descending Houston Center
08:21PM 30.8217 -93.5419 226° Southwest 433 498 24,800 -2,280 Descending Houston Center
08:22PM 30.7456 -93.6428 229° Southwest 421 484 22,600 -2,100 Descending Houston Center
08:23PM 30.6711 -93.7408 229° Southwest 411 473 20,500 -1,860 Descending Houston Center
08:24PM 30.5986 -93.8383 229° Southwest 405 466 18,800 -1,560 Descending Houston Center
08:26PM 30.5264 -93.9344 229° Southwest 400 460 17,300 -1,740 Descending Houston Center
08:27PM 30.4422 -94.0453 229° Southwest 388 447 15,300 -1,800 Descending Houston Center
08:27PM 30.3842 -94.1194 228° Southwest 365 420 13,900 -1,560 Descending Houston Center
08:29PM 30.3100 -94.2158 228° Southwest 356 410 12,100 -900 Descending Houston Center
08:30PM 30.2428 -94.3031 228° Southwest 357 411 12,000 -60 Descending Houston Center
08:30PM 30.1900 -94.3872 234° Southwest 356 410 12,000 -420 Level Houston Center
08:32PM 30.1725 -94.5081 261° West 344 396 11,200 -840 Descending Houston Center
08:33PM 30.1519 -94.6219 258° West 346 398 10,200 -600 Descending Houston Center
08:34PM 30.1331 -94.7308 259° West 340 391 10,000 -120 Descending Houston Center
08:35PM 30.1161 -94.8369 260° West 341 392 10,000 -300 Level Houston Center
08:36PM 30.1056 -94.9253 262° West 290 334 9,500 -840 Descending Houston Center
08:37PM 30.1044 -95.0267 269° West 296 341 8,400 -960 Descending Houston Center
08:38PM 30.1064 -95.1239 271° West 289 333 7,400 -1,020 Descending Houston Center
08:39PM 30.1056 -95.2175 269° West 280 322 6,400 -840 Descending Houston Center
08:40PM 30.1061 -95.2922 271° West 243 280 6,000 -660 Descending Houston Center
08:41PM 30.1056 -95.3769 270° West 239 275 5,100 -900 Descending Houston Center
08:42PM 30.1050 -95.4422 269° West 234 269 4,200 -840 Descending Houston Center
08:43PM 30.0492 -95.4731 206° Southwest 203 234 3,500 -1,080 Descending Houston Center
08:44PM 30.0208 -95.4378 133° Southeast 160 184 2,000 -1,500 Descending Houston Center